createdAt,value
2019-06-20T00:00:27.604Z,1000.36
2019-06-20T00:01:27.546Z,1000.36
2019-06-20T00:03:28.655Z,1000.29
2019-06-20T00:04:27.621Z,1000.34
2019-06-20T00:05:27.535Z,1000.30
2019-06-20T00:06:27.516Z,1000.34
2019-06-20T00:07:27.460Z,1000.29
2019-06-20T00:08:27.539Z,1000.31
2019-06-20T00:09:27.442Z,1000.31
2019-06-20T00:10:27.631Z,1000.29
2019-06-20T00:11:27.414Z,1000.36
2019-06-20T00:12:27.453Z,1000.44
2019-06-20T00:13:27.393Z,1000.40
2019-06-20T00:14:27.477Z,1000.42
2019-06-20T00:15:27.428Z,1000.43
2019-06-20T00:16:27.495Z,1000.43
2019-06-20T00:17:27.355Z,1000.35
2019-06-20T00:18:29.449Z,1000.35
2019-06-20T00:19:27.325Z,1000.34
2019-06-20T00:20:27.472Z,1000.38
2019-06-20T00:21:27.315Z,1000.33
2019-06-20T00:22:27.341Z,1000.39
2019-06-20T00:23:27.283Z,1000.35
2019-06-20T00:24:27.342Z,1000.31
2019-06-20T00:25:27.296Z,1000.25
2019-06-20T00:26:27.354Z,1000.31
2019-06-20T00:27:27.261Z,1000.37
2019-06-20T00:28:27.267Z,1000.35
2019-06-20T00:29:27.222Z,1000.47
2019-06-20T00:30:27.373Z,1000.49
2019-06-20T00:31:27.200Z,1000.42
2019-06-20T00:33:28.305Z,1000.44
2019-06-20T00:34:27.204Z,1000.46
2019-06-20T00:35:27.234Z,1000.49
2019-06-20T00:36:27.243Z,1000.57
2019-06-20T00:37:27.152Z,1000.53
2019-06-20T00:38:27.233Z,1000.49
2019-06-20T00:39:27.124Z,1000.50
2019-06-20T00:40:27.211Z,1000.50
2019-06-20T00:41:27.105Z,1000.54
2019-06-20T00:42:27.160Z,1000.56
2019-06-20T00:43:27.084Z,1000.51
2019-06-20T00:44:27.183Z,1000.52
2019-06-20T00:45:27.034Z,1000.54
2019-06-20T00:46:27.129Z,1000.56
2019-06-20T00:47:27.038Z,1000.64
2019-06-20T00:48:27.100Z,1000.64
2019-06-20T00:49:27.000Z,1000.71
2019-06-20T00:50:27.122Z,1000.71
2019-06-20T00:51:27.026Z,1000.73
2019-06-20T00:53:28.092Z,1000.76
2019-06-20T00:55:28.056Z,1000.74
2019-06-20T00:56:26.950Z,1000.73
2019-06-20T00:57:26.964Z,1000.78
2019-06-20T00:58:26.975Z,1000.73
2019-06-20T00:59:26.895Z,1000.75
2019-06-20T01:00:26.980Z,1000.72
2019-06-20T01:01:26.884Z,1000.76
2019-06-20T01:02:26.921Z,1000.71
2019-06-20T01:03:26.837Z,1000.71
2019-06-20T01:04:26.901Z,1000.68
2019-06-20T01:05:26.819Z,1000.69
2019-06-20T01:06:26.913Z,1000.68
2019-06-20T01:07:26.821Z,1000.67
2019-06-20T01:08:26.872Z,1000.66
2019-06-20T01:09:26.776Z,1000.67
2019-06-20T01:10:26.846Z,1000.67
2019-06-20T01:11:26.793Z,1000.69
2019-06-20T01:12:26.851Z,1000.69
2019-06-20T01:13:33.433Z,1000.70
2019-06-20T01:14:27.788Z,1000.72
2019-06-20T01:15:26.707Z,1000.66
2019-06-20T01:16:26.778Z,1000.56
2019-06-20T01:17:26.754Z,1000.59
2019-06-20T01:19:27.810Z,1000.61
2019-06-20T01:20:26.700Z,1000.64
2019-06-20T01:21:26.643Z,1000.63
2019-06-20T01:22:26.849Z,1000.64
2019-06-20T01:23:26.633Z,1000.63
2019-06-20T01:24:26.737Z,1000.62
2019-06-20T01:25:26.602Z,1000.67
2019-06-20T01:26:26.654Z,1000.68
2019-06-20T01:27:26.611Z,1000.74
2019-06-20T01:28:26.665Z,1000.67
2019-06-20T01:29:26.556Z,1000.70
2019-06-20T01:30:26.682Z,1000.71
2019-06-20T01:31:26.536Z,1000.69
2019-06-20T01:32:26.619Z,1000.78
2019-06-20T01:33:26.510Z,1000.76
2019-06-20T01:34:26.602Z,1000.75
2019-06-20T01:35:26.490Z,1000.75
2019-06-20T01:36:26.516Z,1000.82
2019-06-20T01:37:26.469Z,1000.79
2019-06-20T01:38:26.579Z,1000.81
2019-06-20T01:39:26.448Z,1000.79
2019-06-20T01:40:26.535Z,1000.83
2019-06-20T01:41:26.446Z,1000.76
2019-06-20T01:42:26.474Z,1000.89
2019-06-20T01:43:26.436Z,1000.81
2019-06-20T01:44:26.480Z,1000.91
2019-06-20T01:45:26.389Z,1000.90
2019-06-20T01:46:26.480Z,1000.95
2019-06-20T01:47:26.427Z,1000.93
2019-06-20T01:48:26.416Z,1001.00
2019-06-20T01:49:26.332Z,1000.93
2019-06-20T01:50:26.439Z,1000.89
2019-06-20T01:51:26.322Z,1000.91
2019-06-20T01:52:26.433Z,1000.87
2019-06-20T01:53:26.328Z,1000.90
2019-06-20T01:54:26.335Z,1000.87
2019-06-20T01:55:26.286Z,1000.85
2019-06-20T01:56:26.345Z,1000.89
2019-06-20T01:57:26.271Z,1000.94
2019-06-20T01:58:26.391Z,1000.92
2019-06-20T01:59:26.235Z,1000.89
2019-06-20T02:00:26.265Z,1000.90
2019-06-20T02:01:26.269Z,1000.96
2019-06-20T02:03:27.340Z,1001.01
2019-06-20T02:04:26.301Z,1001.00
2019-06-20T02:05:26.161Z,1000.97
2019-06-20T02:06:26.265Z,1000.94
2019-06-20T02:07:28.284Z,1000.95
2019-06-20T02:08:26.288Z,1000.92
2019-06-20T02:09:26.154Z,1000.98
2019-06-20T02:10:26.132Z,1000.94
2019-06-20T02:11:26.091Z,1000.92
2019-06-20T02:12:26.182Z,1001.02
2019-06-20T02:13:26.193Z,1000.98
2019-06-20T02:14:26.155Z,1000.97
2019-06-20T02:15:26.044Z,1001.00
2019-06-20T02:16:26.075Z,1000.98
2019-06-20T02:17:26.033Z,1000.95
2019-06-20T02:18:26.123Z,1000.94
2019-06-20T02:19:26.044Z,1001.01
2019-06-20T02:20:26.106Z,1001.04
2019-06-20T02:21:25.985Z,1000.96
2019-06-20T02:22:26.018Z,1001.02
2019-06-20T02:23:25.974Z,1000.97
2019-06-20T02:24:26.050Z,1000.96
2019-06-20T02:25:25.951Z,1000.97
2019-06-20T02:26:26.049Z,1000.98
2019-06-20T02:27:25.944Z,1000.94
2019-06-20T02:28:25.982Z,1000.96
2019-06-20T02:29:25.920Z,1000.96
2019-06-20T02:30:25.969Z,1000.95
2019-06-20T02:31:25.887Z,1001.02
2019-06-20T02:32:25.988Z,1001.02
2019-06-20T02:33:25.932Z,1000.96
2019-06-20T02:34:26.012Z,1000.99
2019-06-20T02:35:25.871Z,1001.04
2019-06-20T02:36:25.916Z,1001.08
2019-06-20T02:37:25.838Z,1001.03
2019-06-20T02:38:25.958Z,1001.10
2019-06-20T02:39:25.831Z,1001.17
2019-06-20T02:40:25.851Z,1001.09
2019-06-20T02:41:25.773Z,1001.12
2019-06-20T02:42:25.850Z,1001.12
2019-06-20T02:43:25.749Z,1001.15
2019-06-20T02:44:30.497Z,1001.13
2019-06-20T02:45:26.737Z,1001.15
2019-06-20T02:46:25.774Z,1001.15
2019-06-20T02:47:25.713Z,1001.15
2019-06-20T02:48:25.787Z,1001.16
2019-06-20T02:49:25.703Z,1001.21
2019-06-20T02:50:25.742Z,1001.20
2019-06-20T02:51:25.649Z,1001.13
2019-06-20T02:52:25.714Z,1001.08
2019-06-20T02:53:25.665Z,1001.13
2019-06-20T02:54:25.767Z,1001.10
2019-06-20T02:55:25.646Z,1001.11
2019-06-20T02:56:25.641Z,1001.09
2019-06-20T02:57:25.588Z,1001.10
2019-06-20T02:58:25.725Z,1001.09
2019-06-20T02:59:25.623Z,1001.07
2019-06-20T03:00:25.663Z,1001.09
2019-06-20T03:01:25.547Z,1001.11
2019-06-20T03:02:25.571Z,1001.09
2019-06-20T03:03:25.518Z,1001.08
2019-06-20T03:04:25.610Z,1001.10
2019-06-20T03:05:25.532Z,1001.13
2019-06-20T03:06:25.610Z,1001.12
2019-06-20T03:07:25.477Z,1001.18
2019-06-20T03:09:26.621Z,1001.12
2019-06-20T03:10:25.526Z,1001.13
2019-06-20T03:11:25.430Z,1001.15
2019-06-20T03:12:25.639Z,1001.14
2019-06-20T03:13:25.408Z,1001.15
2019-06-20T03:14:25.501Z,1001.14
2019-06-20T03:15:25.430Z,1001.19
2019-06-20T03:16:25.512Z,1001.19
2019-06-20T03:17:25.370Z,1001.20
2019-06-20T03:18:25.379Z,1001.16
2019-06-20T03:19:25.346Z,1001.15
2019-06-20T03:20:25.405Z,1001.23
2019-06-20T03:21:25.346Z,1001.25
2019-06-20T03:23:26.417Z,1001.25
2019-06-20T03:24:25.319Z,1001.28
2019-06-20T03:25:25.304Z,1001.25
2019-06-20T03:26:25.336Z,1001.31
2019-06-20T03:27:25.255Z,1001.27
2019-06-20T03:28:25.349Z,1001.30
2019-06-20T03:29:25.242Z,1001.31
2019-06-20T03:30:25.400Z,1001.35
2019-06-20T03:31:25.239Z,1001.33
2019-06-20T03:32:25.282Z,1001.33
2019-06-20T03:33:25.206Z,1001.33
2019-06-20T03:34:25.298Z,1001.27
2019-06-20T03:35:25.199Z,1001.28
2019-06-20T03:36:25.241Z,1001.21
2019-06-20T03:37:25.141Z,1001.27
2019-06-20T03:38:25.212Z,1001.24
2019-06-20T03:39:25.116Z,1001.29
2019-06-20T03:40:25.225Z,1001.26
2019-06-20T03:41:25.124Z,1001.27
2019-06-20T03:42:25.151Z,1001.26
2019-06-20T03:43:25.078Z,1001.23
2019-06-20T03:44:25.163Z,1001.31
2019-06-20T03:45:25.052Z,1001.26
2019-06-20T03:46:26.123Z,1001.29
2019-06-20T03:47:25.037Z,1001.32
2019-06-20T03:48:25.079Z,1001.39
2019-06-20T03:49:25.003Z,1001.36
2019-06-20T03:50:25.128Z,1001.41
2019-06-20T03:51:25.019Z,1001.41
2019-06-20T03:53:26.087Z,1001.46
2019-06-20T03:54:25.052Z,1001.50
2019-06-20T03:55:24.946Z,1001.48
2019-06-20T03:56:25.068Z,1001.50
2019-06-20T03:57:24.925Z,1001.50
2019-06-20T03:58:24.943Z,1001.55
2019-06-20T03:59:24.899Z,1001.56
2019-06-20T04:00:24.978Z,1001.63
2019-06-20T04:01:24.921Z,1001.57
2019-06-20T04:02:24.968Z,1001.58
2019-06-20T04:03:24.853Z,1001.65
2019-06-20T04:04:24.897Z,1001.72
2019-06-20T04:05:24.827Z,1001.72
2019-06-20T04:06:24.914Z,1001.65
2019-06-20T04:07:24.839Z,1001.73
2019-06-20T04:08:24.906Z,1001.72
2019-06-20T04:09:24.819Z,1001.73
2019-06-20T04:10:24.818Z,1001.79
2019-06-20T04:11:24.791Z,1001.83
2019-06-20T04:12:24.914Z,1001.78
2019-06-20T04:13:24.744Z,1001.83
2019-06-20T04:14:24.862Z,1001.75
2019-06-20T04:15:24.726Z,1001.80
2019-06-20T04:16:24.780Z,1001.81
2019-06-20T04:17:24.731Z,1001.83
2019-06-20T04:18:24.774Z,1001.81
2019-06-20T04:19:24.676Z,1001.83
2019-06-20T04:20:24.818Z,1001.85
2019-06-20T04:21:24.650Z,1001.87
2019-06-20T04:22:24.740Z,1001.89
2019-06-20T04:23:24.636Z,1001.87
2019-06-20T04:24:27.789Z,1001.85
2019-06-20T04:25:24.605Z,1001.84
2019-06-20T04:26:24.621Z,1001.81
2019-06-20T04:27:24.624Z,1001.85
2019-06-20T04:29:25.691Z,1001.82
2019-06-20T04:30:24.685Z,1001.88
2019-06-20T04:31:24.595Z,1001.82
2019-06-20T04:32:24.641Z,1001.82
2019-06-20T04:33:24.520Z,1001.82
2019-06-20T04:34:24.601Z,1001.86
2019-06-20T04:35:24.500Z,1001.88
2019-06-20T04:36:24.606Z,1001.91
2019-06-20T04:37:24.586Z,1001.91
2019-06-20T04:38:24.536Z,1001.93
2019-06-20T04:39:24.456Z,1001.97
2019-06-20T04:40:24.522Z,1001.93
2019-06-20T04:41:25.076Z,1001.95
2019-06-20T04:42:27.771Z,1001.94
2019-06-20T04:43:24.432Z,1001.95
2019-06-20T04:44:24.441Z,1001.98
2019-06-20T04:45:34.520Z,1001.99
2019-06-20T04:46:25.372Z,1001.99
2019-06-20T04:47:24.462Z,1001.97
2019-06-20T04:48:24.394Z,1001.98
2019-06-20T04:49:26.392Z,1001.98
2019-06-20T04:50:24.519Z,1001.95
2019-06-20T04:51:26.654Z,1002.01
2019-06-20T04:52:24.993Z,1002.00
2019-06-20T04:53:24.333Z,1002.00
2019-06-20T04:54:24.427Z,1002.03
2019-06-20T04:55:24.542Z,1002.07
2019-06-20T04:56:24.649Z,1002.11
2019-06-20T04:57:24.326Z,1002.14
2019-06-20T04:58:24.283Z,1002.08
2019-06-20T04:59:24.350Z,1002.14
2019-06-20T05:00:24.224Z,1002.16
2019-06-20T05:01:24.252Z,1002.16
2019-06-20T05:02:24.430Z,1002.16
2019-06-20T05:03:24.256Z,1002.18
2019-06-20T05:04:24.171Z,1002.19
2019-06-20T05:05:24.292Z,1002.17
2019-06-20T05:06:24.156Z,1002.26
2019-06-20T05:07:24.217Z,1002.23
2019-06-20T05:08:24.185Z,1002.23
2019-06-20T05:09:24.215Z,1002.22
2019-06-20T05:10:24.112Z,1002.24
2019-06-20T05:11:24.230Z,1002.32
2019-06-20T05:12:24.097Z,1002.24
2019-06-20T05:13:24.174Z,1002.25
2019-06-20T05:14:24.096Z,1002.24
2019-06-20T05:16:25.179Z,1002.29
2019-06-20T05:17:24.064Z,1002.26
2019-06-20T05:18:24.032Z,1002.27
2019-06-20T05:19:24.105Z,1002.33
2019-06-20T05:20:24.022Z,1002.32
2019-06-20T05:21:24.132Z,1002.34
2019-06-20T05:22:23.981Z,1002.42
2019-06-20T05:23:24.058Z,1002.39
2019-06-20T05:24:25.633Z,1002.39
2019-06-20T05:25:23.964Z,1002.45
2019-06-20T05:26:23.945Z,1002.43
2019-06-20T05:27:24.135Z,1002.41
2019-06-20T05:28:23.933Z,1002.47
2019-06-20T05:29:23.996Z,1002.45
2019-06-20T05:30:23.891Z,1002.45
2019-06-20T05:31:23.956Z,1002.44
2019-06-20T05:32:23.866Z,1002.50
2019-06-20T05:34:25.003Z,1002.46
2019-06-20T05:35:23.882Z,1002.51
2019-06-20T05:36:23.835Z,1002.49
2019-06-20T05:37:23.899Z,1002.58
2019-06-20T05:38:23.817Z,1002.59
2019-06-20T05:39:23.939Z,1002.56
2019-06-20T05:40:23.823Z,1002.57
2019-06-20T05:41:23.821Z,1002.59
2019-06-20T05:42:23.847Z,1002.62
2019-06-20T05:43:23.850Z,1002.63
2019-06-20T05:44:23.748Z,1002.62
2019-06-20T05:45:23.778Z,1002.66
2019-06-20T05:46:23.714Z,1002.68
2019-06-20T05:47:23.777Z,1002.62
2019-06-20T05:48:23.701Z,1002.71
2019-06-20T05:49:23.849Z,1002.70
2019-06-20T05:50:23.704Z,1002.69
2019-06-20T05:51:24.049Z,1002.64
2019-06-20T05:52:24.616Z,1002.67
2019-06-20T05:53:23.701Z,1002.63
2019-06-20T05:54:23.744Z,1002.61
2019-06-20T05:55:23.781Z,1002.64
2019-06-20T05:56:23.764Z,1002.62
2019-06-20T05:57:23.623Z,1002.69
2019-06-20T05:58:23.634Z,1002.64
2019-06-20T05:59:23.664Z,1002.67
2019-06-20T06:00:23.592Z,1002.64
2019-06-20T06:01:23.696Z,1002.71
2019-06-20T06:02:23.568Z,1002.63
2019-06-20T06:03:23.564Z,1002.64
2019-06-20T06:04:23.537Z,1002.70
2019-06-20T06:05:23.582Z,1002.68
2019-06-20T06:06:23.522Z,1002.72
2019-06-20T06:07:23.593Z,1002.73
2019-06-20T06:08:23.501Z,1002.72
2019-06-20T06:09:23.504Z,1002.76
2019-06-20T06:10:23.460Z,1002.79
2019-06-20T06:11:23.480Z,1002.70
2019-06-20T06:12:23.457Z,1002.71
2019-06-20T06:13:23.425Z,1002.68
2019-06-20T06:14:23.406Z,1002.71
2019-06-20T06:15:23.457Z,1002.66
2019-06-20T06:16:27.221Z,1002.69
2019-06-20T06:17:23.453Z,1002.65
2019-06-20T06:18:23.359Z,1002.72
2019-06-20T06:19:23.360Z,1002.71
2019-06-20T06:20:23.345Z,1002.76
2019-06-20T06:21:23.360Z,1002.70
2019-06-20T06:22:23.320Z,1002.72
2019-06-20T06:23:23.352Z,1002.73
2019-06-20T06:24:23.302Z,1002.72
2019-06-20T06:25:23.294Z,1002.70
2019-06-20T06:26:23.311Z,1002.78
2019-06-20T06:27:23.298Z,1002.76
2019-06-20T06:28:23.248Z,1002.72
2019-06-20T06:29:23.428Z,1002.72
2019-06-20T06:30:23.279Z,1002.68
2019-06-20T06:31:23.510Z,1002.68
2019-06-20T06:32:39.033Z,1002.73
2019-06-20T06:33:24.195Z,1002.78
2019-06-20T06:34:23.188Z,1002.76
2019-06-20T06:35:23.200Z,1002.81
2019-06-20T06:36:23.227Z,1002.78
2019-06-20T06:37:23.175Z,1002.82
2019-06-20T06:38:23.145Z,1002.82
2019-06-20T06:39:23.147Z,1002.78
2019-06-20T06:40:23.131Z,1002.83
2019-06-20T06:41:23.173Z,1002.84
2019-06-20T06:42:23.113Z,1002.82
2019-06-20T06:43:23.121Z,1002.84
2019-06-20T06:44:23.178Z,1002.80
2019-06-20T06:45:23.088Z,1002.81
2019-06-20T06:46:23.191Z,1002.79
2019-06-20T06:47:23.111Z,1002.80
2019-06-20T06:48:23.059Z,1002.80
2019-06-20T06:49:23.027Z,1002.86
2019-06-20T06:50:23.034Z,1002.77
2019-06-20T06:51:23.000Z,1002.83
2019-06-20T06:52:23.115Z,1002.85
2019-06-20T06:53:22.981Z,1002.87
2019-06-20T06:54:22.989Z,1002.87
2019-06-20T06:55:22.951Z,1002.90
2019-06-20T06:56:22.964Z,1002.90
2019-06-20T06:57:22.991Z,1002.90
2019-06-20T06:58:22.939Z,1002.85
2019-06-20T06:59:22.929Z,1002.89
2019-06-20T07:00:22.956Z,1002.90
2019-06-20T07:01:22.905Z,1002.92
2019-06-20T07:02:22.978Z,1002.90
2019-06-20T07:03:22.890Z,1002.91
2019-06-20T07:04:22.862Z,1002.94
2019-06-20T07:05:22.839Z,1002.91
2019-06-20T07:07:23.952Z,1002.91
2019-06-20T07:08:22.844Z,1002.95
2019-06-20T07:09:22.810Z,1002.93
2019-06-20T07:10:22.837Z,1002.98
2019-06-20T07:11:22.775Z,1002.99
2019-06-20T07:12:22.770Z,1002.98
2019-06-20T07:13:22.800Z,1003.01
2019-06-20T07:14:22.746Z,1002.98
2019-06-20T07:15:22.755Z,1003.02
2019-06-20T07:16:22.851Z,1003.00
2019-06-20T07:17:22.702Z,1002.98
2019-06-20T07:18:23.830Z,1002.98
2019-06-20T07:19:22.684Z,1003.08
2019-06-20T07:20:22.677Z,1002.99
2019-06-20T07:21:22.666Z,1002.94
2019-06-20T07:22:22.660Z,1003.00
2019-06-20T07:23:22.709Z,1003.03
2019-06-20T07:24:22.642Z,1003.00
2019-06-20T07:25:22.630Z,1003.04
2019-06-20T07:26:22.620Z,1002.97
2019-06-20T07:27:22.610Z,1002.97
2019-06-20T07:28:22.644Z,1002.98
2019-06-20T07:29:22.577Z,1003.09
2019-06-20T07:30:22.645Z,1003.02
2019-06-20T07:31:22.550Z,1003.08
2019-06-20T07:32:22.668Z,1003.08
2019-06-20T07:33:22.541Z,1003.11
2019-06-20T07:34:22.599Z,1003.07
2019-06-20T07:35:22.514Z,1003.02
2019-06-20T07:37:23.648Z,1003.05
2019-06-20T07:38:22.551Z,1003.07
2019-06-20T07:39:22.526Z,1003.08
2019-06-20T07:40:22.451Z,1003.09
2019-06-20T07:41:22.433Z,1003.12
2019-06-20T07:42:22.434Z,1003.12
2019-06-20T07:43:22.456Z,1003.10
2019-06-20T07:44:22.502Z,1003.15
2019-06-20T07:45:22.396Z,1003.15
2019-06-20T07:46:22.465Z,1003.14
2019-06-20T07:47:22.378Z,1003.14
2019-06-20T07:48:22.457Z,1003.17
2019-06-20T07:49:22.406Z,1003.10
2019-06-20T07:51:23.463Z,1003.15
2019-06-20T07:52:22.328Z,1003.12
2019-06-20T07:53:22.302Z,1003.07
2019-06-20T07:54:22.328Z,1003.05
2019-06-20T07:55:22.283Z,1003.09
2019-06-20T07:56:22.286Z,1003.07
2019-06-20T07:57:22.253Z,1003.12
2019-06-20T07:58:22.282Z,1003.14
2019-06-20T07:59:22.275Z,1003.16
2019-06-20T08:00:22.345Z,1003.21
2019-06-20T08:01:22.222Z,1003.16
2019-06-20T08:02:22.245Z,1003.22
2019-06-20T08:03:22.223Z,1003.32
2019-06-20T08:04:22.236Z,1003.29
2019-06-20T08:05:22.176Z,1003.26
2019-06-20T08:06:51.084Z,1003.27
2019-06-20T08:07:23.162Z,1003.29
2019-06-20T08:08:22.151Z,1003.27
2019-06-20T08:09:22.295Z,1003.27
2019-06-20T08:10:22.278Z,1003.28
2019-06-20T08:11:22.114Z,1003.35
2019-06-20T08:12:22.108Z,1003.24
2019-06-20T08:13:22.095Z,1003.31
2019-06-20T08:14:22.141Z,1003.19
2019-06-20T08:15:22.106Z,1003.29
2019-06-20T08:16:22.154Z,1003.29
2019-06-20T08:17:34.714Z,1003.28
2019-06-20T08:18:23.032Z,1003.31
2019-06-20T08:19:22.029Z,1003.33
2019-06-20T08:20:22.033Z,1003.35
2019-06-20T08:21:22.067Z,1003.35
2019-06-20T08:22:21.985Z,1003.41
2019-06-20T08:23:21.985Z,1003.35
2019-06-20T08:24:21.962Z,1003.32
2019-06-20T08:25:22.000Z,1003.41
2019-06-20T08:26:21.939Z,1003.42
2019-06-20T08:27:21.972Z,1003.42
2019-06-20T08:28:21.923Z,1003.45
2019-06-20T08:29:22.030Z,1003.50
2019-06-20T08:30:21.938Z,1003.42
2019-06-20T08:31:21.941Z,1003.51
2019-06-20T08:32:21.867Z,1003.50
2019-06-20T08:33:21.996Z,1003.45
2019-06-20T08:34:21.885Z,1003.48
2019-06-20T08:35:21.866Z,1003.51
2019-06-20T08:36:21.854Z,1003.48
2019-06-20T08:37:21.847Z,1003.53
2019-06-20T08:38:21.800Z,1003.55
2019-06-20T08:39:21.810Z,1003.56
2019-06-20T08:40:21.778Z,1003.53
2019-06-20T08:41:21.899Z,1003.51
2019-06-20T08:42:21.762Z,1003.61
2019-06-20T08:43:21.756Z,1003.56
2019-06-20T08:44:21.822Z,1003.55
2019-06-20T08:45:21.835Z,1003.55
2019-06-20T08:46:21.735Z,1003.53
2019-06-20T08:47:23.895Z,1003.55
2019-06-20T08:48:21.696Z,1003.58
2019-06-20T08:49:21.755Z,1003.56
2019-06-20T08:50:21.670Z,1003.56
2019-06-20T08:51:21.696Z,1003.56
2019-06-20T08:52:21.657Z,1003.59
2019-06-20T08:53:21.654Z,1003.57
2019-06-20T08:54:21.627Z,1003.56
2019-06-20T08:55:21.637Z,1003.58
2019-06-20T08:56:21.649Z,1003.57
2019-06-20T08:57:23.324Z,1003.61
2019-06-20T08:58:21.624Z,1003.64
2019-06-20T08:59:24.683Z,1003.60
2019-06-20T09:00:21.556Z,1003.61
2019-06-20T09:01:21.668Z,1003.59
2019-06-20T09:02:21.555Z,1003.57
2019-06-20T09:03:21.555Z,1003.57
2019-06-20T09:04:22.570Z,1003.55
2019-06-20T09:05:21.528Z,1003.59
2019-06-20T09:06:21.516Z,1003.59
2019-06-20T09:07:21.512Z,1003.59
2019-06-20T09:08:21.474Z,1003.60
2019-06-20T09:09:21.468Z,1003.62
2019-06-20T09:10:21.446Z,1003.56
2019-06-20T09:11:21.486Z,1003.64
2019-06-20T09:12:21.444Z,1003.61
2019-06-20T09:13:21.446Z,1003.59
2019-06-20T09:14:21.407Z,1003.61
2019-06-20T09:15:21.446Z,1003.58
2019-06-20T09:16:24.624Z,1003.57
2019-06-20T09:17:21.514Z,1003.59
2019-06-20T09:18:21.382Z,1003.58
2019-06-20T09:19:21.355Z,1003.65
2019-06-20T09:20:21.345Z,1003.57
2019-06-20T09:21:21.346Z,1003.59
2019-06-20T09:22:21.364Z,1003.59
2019-06-20T09:24:22.425Z,1003.59
2019-06-20T09:25:21.329Z,1003.64
2019-06-20T09:26:21.285Z,1003.62
2019-06-20T09:27:21.313Z,1003.69
2019-06-20T09:28:21.256Z,1003.67
2019-06-20T09:29:21.836Z,1003.55
2019-06-20T09:30:21.228Z,1003.65
2019-06-20T09:31:21.949Z,1003.60
2019-06-20T09:32:21.346Z,1003.68
2019-06-20T09:33:21.247Z,1003.72
2019-06-20T09:34:21.196Z,1003.68
2019-06-20T09:35:21.295Z,1003.74
2019-06-20T09:36:21.163Z,1003.82
2019-06-20T09:37:21.168Z,1003.80
2019-06-20T09:38:21.259Z,1003.68
2019-06-20T09:39:21.145Z,1003.72
2019-06-20T09:40:21.127Z,1003.64
2019-06-20T09:41:21.156Z,1003.63
2019-06-20T09:42:21.090Z,1003.63
2019-06-20T09:43:27.686Z,1003.63
2019-06-20T09:44:22.125Z,1003.69
2019-06-20T09:46:22.218Z,1003.67
2019-06-20T09:47:21.096Z,1003.67
2019-06-20T09:48:21.078Z,1003.65
2019-06-20T09:49:21.038Z,1003.65
2019-06-20T09:50:21.014Z,1003.64
2019-06-20T09:51:21.071Z,1003.67
2019-06-20T09:52:20.985Z,1003.65
2019-06-20T09:53:21.018Z,1003.69
2019-06-20T09:54:20.990Z,1003.72
2019-06-20T09:55:20.964Z,1003.69
2019-06-20T09:56:20.953Z,1003.69
2019-06-20T09:57:20.946Z,1003.79
2019-06-20T09:58:20.976Z,1003.75
2019-06-20T09:59:27.695Z,1003.80
2019-06-20T10:00:21.902Z,1003.70
2019-06-20T10:01:23.087Z,1003.80
2019-06-20T10:02:20.908Z,1003.79
2019-06-20T10:03:23.198Z,1003.86
2019-06-20T10:04:21.691Z,1003.76
2019-06-20T10:05:20.856Z,1003.75
2019-06-20T10:06:20.842Z,1003.78
2019-06-20T10:07:20.850Z,1003.74
2019-06-20T10:08:20.810Z,1003.71
2019-06-20T10:09:20.844Z,1003.82
2019-06-20T10:10:20.784Z,1003.80
2019-06-20T10:11:20.797Z,1003.77
2019-06-20T10:12:20.789Z,1003.75
2019-06-20T10:13:20.763Z,1003.81
2019-06-20T10:14:20.784Z,1003.87
2019-06-20T10:15:23.306Z,1003.74
2019-06-20T10:16:20.746Z,1003.82
2019-06-20T10:17:23.311Z,1003.79
2019-06-20T10:18:20.733Z,1003.85
2019-06-20T10:19:20.722Z,1003.83
2019-06-20T10:20:20.685Z,1003.81
2019-06-20T10:21:20.679Z,1003.86
2019-06-20T10:22:20.670Z,1003.85
2019-06-20T10:23:20.676Z,1003.80
2019-06-20T10:24:20.666Z,1003.86
2019-06-20T10:25:20.656Z,1003.91
2019-06-20T10:26:20.628Z,1003.89
2019-06-20T10:27:20.613Z,1003.82
2019-06-20T10:28:20.594Z,1003.91
2019-06-20T10:30:21.757Z,1003.99
2019-06-20T10:32:21.718Z,1003.96
2019-06-20T10:34:21.676Z,1003.94
2019-06-20T10:35:20.578Z,1003.95
2019-06-20T10:36:20.508Z,1003.90
2019-06-20T10:38:21.600Z,1003.97
2019-06-20T10:40:21.617Z,1003.88
2019-06-20T10:41:20.455Z,1003.89
2019-06-20T10:42:20.433Z,1003.93
2019-06-20T10:43:20.440Z,1003.90
2019-06-20T10:44:20.448Z,1004.06
2019-06-20T10:46:21.561Z,1004.02
2019-06-20T10:47:32.375Z,1004.06
2019-06-20T10:48:21.381Z,1004.02
2019-06-20T10:50:21.539Z,1004.12
2019-06-20T10:51:20.378Z,1004.11
2019-06-20T10:52:20.322Z,1004.06
2019-06-20T10:53:20.380Z,1004.08
2019-06-20T10:54:20.302Z,1004.11
2019-06-20T10:56:21.442Z,1004.13
2019-06-20T10:57:21.008Z,1004.17
2019-06-20T10:58:20.291Z,1004.26
2019-06-20T11:00:30.194Z,1004.22
2019-06-20T11:01:21.273Z,1004.20
2019-06-20T11:03:20.293Z,1004.26
2019-06-20T11:04:23.140Z,1004.26
2019-06-20T11:05:20.194Z,1004.29
2019-06-20T11:06:20.689Z,1004.23
2019-06-20T11:07:21.157Z,1004.36
2019-06-20T11:08:21.102Z,1004.26
2019-06-20T11:09:20.676Z,1004.19
2019-06-20T11:10:20.663Z,1004.20
2019-06-20T11:11:20.712Z,1004.11
2019-06-20T11:12:20.496Z,1004.16
2019-06-20T11:13:20.090Z,1004.12
2019-06-20T11:14:20.112Z,1004.15
2019-06-20T11:15:20.076Z,1004.26
2019-06-20T11:16:20.164Z,1004.19
2019-06-20T11:17:20.078Z,1004.17
2019-06-20T11:18:20.170Z,1004.14
2019-06-20T11:19:20.048Z,1004.23
2019-06-20T11:20:20.034Z,1004.22
2019-06-20T11:21:20.007Z,1004.28
2019-06-20T11:22:20.008Z,1004.25
2019-06-20T11:23:20.010Z,1004.20
2019-06-20T11:24:19.985Z,1004.19
2019-06-20T11:25:19.968Z,1004.12
2019-06-20T11:26:19.965Z,1004.27
2019-06-20T11:27:20.026Z,1004.22
2019-06-20T11:28:19.937Z,1004.20
2019-06-20T11:29:19.949Z,1004.14
2019-06-20T11:30:20.026Z,1004.08
2019-06-20T11:31:19.903Z,1004.10
2019-06-20T11:32:19.975Z,1004.11
2019-06-20T11:33:19.884Z,1004.10
2019-06-20T11:34:19.870Z,1004.13
2019-06-20T11:35:19.852Z,1004.08
2019-06-20T11:36:19.886Z,1004.07
2019-06-20T11:37:19.867Z,1004.00
2019-06-20T11:38:19.824Z,1004.11
2019-06-20T11:39:19.822Z,1004.08
2019-06-20T11:40:19.812Z,1004.19
2019-06-20T11:41:19.803Z,1004.22
2019-06-20T11:42:19.813Z,1004.18
2019-06-20T11:43:19.782Z,1004.22
2019-06-20T11:44:19.812Z,1004.20
2019-06-20T11:45:19.779Z,1004.18
2019-06-20T11:46:20.064Z,1004.27
2019-06-20T11:47:20.613Z,1004.18
2019-06-20T11:48:19.773Z,1004.15
2019-06-20T11:49:19.708Z,1004.14
2019-06-20T11:50:19.770Z,1004.24
2019-06-20T11:51:19.678Z,1004.19
2019-06-20T11:52:19.678Z,1004.23
2019-06-20T11:53:19.691Z,1004.19
2019-06-20T11:54:19.675Z,1004.16
2019-06-20T11:55:19.640Z,1004.15
2019-06-20T11:56:19.644Z,1004.11
2019-06-20T11:57:19.653Z,1004.23
2019-06-20T11:58:19.659Z,1004.20
2019-06-20T11:59:19.598Z,1004.19
2019-06-20T12:00:19.627Z,1004.22
2019-06-20T12:01:32.250Z,1004.20
2019-06-20T12:02:20.558Z,1004.23
2019-06-20T12:03:19.683Z,1004.10
2019-06-20T12:04:19.555Z,1004.13
2019-06-20T12:05:19.658Z,1004.12
2019-06-20T12:06:19.522Z,1004.08
2019-06-20T12:07:19.515Z,1004.21
2019-06-20T12:08:19.552Z,1004.11
2019-06-20T12:09:19.506Z,1004.16
2019-06-20T12:10:19.494Z,1004.14
2019-06-20T12:11:19.471Z,1004.16
2019-06-20T12:12:19.456Z,1004.16
2019-06-20T12:13:19.486Z,1004.11
2019-06-20T12:14:19.450Z,1004.12
2019-06-20T12:15:19.533Z,1004.21
2019-06-20T12:16:19.425Z,1004.12
2019-06-20T12:18:27.247Z,1004.16
2019-06-20T12:19:13.034Z,1004.12
2019-06-20T12:21:21.885Z,1004.14
2019-06-20T12:22:21.861Z,1004.09
2019-06-20T12:23:21.890Z,1004.09
2019-06-20T12:24:21.899Z,1004.07
2019-06-20T12:25:21.845Z,1004.16
2019-06-20T12:26:21.823Z,1004.16
2019-06-20T12:27:21.821Z,1004.18
2019-06-20T12:28:21.798Z,1004.18
2019-06-20T12:29:21.824Z,1004.22
2019-06-20T12:30:21.784Z,1004.12
2019-06-20T12:31:21.897Z,1004.11
2019-06-20T12:32:21.759Z,1004.09
2019-06-20T12:33:21.794Z,1004.15
2019-06-20T12:34:21.781Z,1004.10